Time;durP1;ratioP1;P1;durP2;ratioP2;P2;SDS_P1;SDS_P2;PMS_P1;PMS_P2;Temp;Humidity;BMP_temperature;BMP_pressure;BME280_temperature;BME280_humidity;BME280_pressure;Samples;Min_cycle;Max_cycle;Signal;HPM_P1;HPM_P2
2021/03/17 00:00:40;;;;;;;1.00;0.90;;;;;;;;;;5002126;28;20201;-50
2021/03/17 00:03:07;;;;;;;1.40;0.85;;;;;;;;;;5004248;28;20176;-51
2021/03/17 00:05:34;;;;;;;1.55;1.05;;;;;;;;;;5010843;28;20230;-51
2021/03/17 00:08:00;;;;;;;2.35;1.00;;;;;;;;;;5007194;28;20194;-51
2021/03/17 00:10:27;;;;;;;0.80;0.80;;;;;;;;;;4997728;28;20173;-51
2021/03/17 00:12:53;;;;;;;1.20;0.80;;;;;;;;;;5005922;28;20180;-51
2021/03/17 00:15:21;;;;;;;1.00;0.90;;;;;;;;;;5011448;28;20569;-51
2021/03/17 00:17:47;;;;;;;1.17;1.00;;;;;;;;;;4998379;28;20224;-51
2021/03/17 00:20:13;;;;;;;1.17;0.85;;;;;;;;;;5000138;28;20460;-51
2021/03/17 00:22:39;;;;;;;1.35;0.88;;;;;;;;;;5011253;28;20205;-51
2021/03/17 00:25:05;;;;;;;1.20;0.80;;;;;;;;;;4997198;28;20177;-51
2021/03/17 00:27:31;;;;;;;0.77;0.77;;;;;;;;;;5000620;28;20189;-50
2021/03/17 00:29:57;;;;;;;1.15;0.80;;;;;;;;;;5015514;28;20184;-50
2021/03/17 00:32:23;;;;;;;0.95;0.80;;;;;;;;;;5015247;28;20478;-51
2021/03/17 00:34:49;;;;;;;1.38;0.70;;;;;;;;;;5008588;28;20184;-51
2021/03/17 00:37:15;;;;;;;0.90;0.90;;;;;;;;;;4997381;28;20248;-51
2021/03/17 00:39:41;;;;;;;0.80;0.80;;;;;;;;;;5015487;28;20455;-51
2021/03/17 00:42:07;;;;;;;0.82;0.80;;;;;;;;;;5006057;28;20228;-51
2021/03/17 00:44:33;;;;;;;0.85;0.85;;;;;;;;;;5001151;28;20200;-51
2021/03/17 00:46:59;;;;;;;0.73;0.70;;;;;;;;;;4997155;28;20184;-51
2021/03/17 00:49:25;;;;;;;1.35;0.80;;;;;;;;;;5023503;28;20270;-51
2021/03/17 00:51:51;;;;;;;1.02;0.90;;;;;;;;;;5019973;28;20604;-51
2021/03/17 00:54:17;;;;;;;1.02;0.90;;;;;;;;;;5016258;28;20172;-51
2021/03/17 00:56:43;;;;;;;0.77;0.77;;;;;;;;;;5024820;28;20556;-51
2021/03/17 00:59:09;;;;;;;0.80;0.80;;;;;;;;;;5020803;28;20176;-51
2021/03/17 01:01:35;;;;;;;0.80;0.80;;;;;;;;;;5032417;28;20207;-51
2021/03/17 01:04:01;;;;;;;0.98;0.90;;;;;;;;;;5035892;28;20190;-51
2021/03/17 01:06:27;;;;;;;1.20;1.10;;;;;;;;;;5032327;28;20198;-51
2021/03/17 01:08:53;;;;;;;0.63;0.63;;;;;;;;;;5034203;28;20180;-50
2021/03/17 01:11:19;;;;;;;1.27;0.90;;;;;;;;;;5035996;28;20214;-50
2021/03/17 01:13:45;;;;;;;0.80;0.80;;;;;;;;;;5035019;28;20184;-50
2021/03/17 01:16:12;;;;;;;1.85;0.90;;;;;;;;;;5035568;28;20164;-50
2021/03/17 01:18:38;;;;;;;0.80;0.80;;;;;;;;;;5033773;28;20607;-50
2021/03/17 01:21:04;;;;;;;0.68;0.68;;;;;;;;;;5024666;28;20650;-50
2021/03/17 01:23:30;;;;;;;0.80;0.70;;;;;;;;;;5016306;28;20416;-50
2021/03/17 01:25:56;;;;;;;1.23;1.05;;;;;;;;;;5025957;28;20493;-50
2021/03/17 01:28:22;;;;;;;0.68;0.63;;;;;;;;;;5028464;28;20188;-50
2021/03/17 01:30:55;;;;;;;0.68;0.68;;;;;;;;;;5035562;28;20210;-50
2021/03/17 01:33:23;;;;;;;0.80;0.80;;;;;;;;;;5034235;28;21520;-50
2021/03/17 01:35:49;;;;;;;0.70;0.70;;;;;;;;;;5031376;28;20267;-50
2021/03/17 01:38:15;;;;;;;0.70;0.60;;;;;;;;;;5033036;28;20255;-51
2021/03/17 01:40:42;;;;;;;0.73;0.63;;;;;;;;;;5034056;28;20172;-51
2021/03/17 01:43:09;;;;;;;0.70;0.70;;;;;;;;;;5030882;28;20187;-51
2021/03/17 01:45:34;;;;;;;0.80;0.80;;;;;;;;;;5019463;28;20188;-51
2021/03/17 01:48:00;;;;;;;1.38;0.75;;;;;;;;;;5017352;28;20239;-51
2021/03/17 01:50:28;;;;;;;0.60;0.60;;;;;;;;;;5033493;28;20196;-51
2021/03/17 01:52:55;;;;;;;1.17;0.70;;;;;;;;;;5027628;28;20266;-51
2021/03/17 01:55:21;;;;;;;0.93;0.70;;;;;;;;;;5016309;28;20264;-51
2021/03/17 01:57:48;;;;;;;1.00;0.75;;;;;;;;;;5018841;28;20507;-51
2021/03/17 02:00:15;;;;;;;0.77;0.70;;;;;;;;;;5019317;28;20182;-51
2021/03/17 02:02:41;;;;;;;0.80;0.63;;;;;;;;;;5035005;28;20186;-51
2021/03/17 02:05:11;;;;;;;0.80;0.80;;;;;;;;;;5019903;28;20590;-51
2021/03/17 02:07:38;;;;;;;0.65;0.57;;;;;;;;;;5018263;28;20483;-51
2021/03/17 02:10:23;;;;;;;0.82;0.60;;;;;;;;;;5016689;28;20184;-51
2021/03/17 02:13:08;;;;;;;0.65;0.65;;;;;;;;;;5015630;28;20618;-51
2021/03/17 02:15:48;;;;;;;0.93;0.75;;;;;;;;;;5019651;28;20191;-51
2021/03/17 02:18:20;;;;;;;1.77;0.95;;;;;;;;;;5023917;28;20178;-51
2021/03/17 02:20:46;;;;;;;1.02;0.80;;;;;;;;;;5024375;28;20180;-51
2021/03/17 02:23:25;;;;;;;1.15;0.73;;;;;;;;;;5034148;28;20186;-51
2021/03/17 02:25:51;;;;;;;0.77;0.60;;;;;;;;;;5029480;28;20191;-51
2021/03/17 02:28:49;;;;;;;0.80;0.80;;;;;;;;;;5024118;28;20184;-51
2021/03/17 02:31:27;;;;;;;0.60;0.60;;;;;;;;;;5017300;28;20878;-51
2021/03/17 02:33:56;;;;;;;0.75;0.68;;;;;;;;;;5029505;28;20246;-51
2021/03/17 02:36:25;;;;;;;0.73;0.60;;;;;;;;;;5048454;28;20211;-51
2021/03/17 02:39:11;;;;;;;0.63;0.63;;;;;;;;;;5034717;28;20198;-51
2021/03/17 02:41:40;;;;;;;0.65;0.60;;;;;;;;;;4988255;28;20215;-51
2021/03/17 02:44:10;;;;;;;0.80;0.77;;;;;;;;;;5029168;28;20238;-51
2021/03/17 02:46:37;;;;;;;0.75;0.75;;;;;;;;;;5034743;28;20190;-51
2021/03/17 02:49:06;;;;;;;0.88;0.63;;;;;;;;;;5037074;28;20208;-51
2021/03/17 02:51:32;;;;;;;0.60;0.50;;;;;;;;;;5037062;28;20201;-51
2021/03/17 02:54:00;;;;;;;0.77;0.60;;;;;;;;;;5023888;28;20409;-51
2021/03/17 02:56:27;;;;;;;0.73;0.50;;;;;;;;;;5036614;28;20180;-51
2021/03/17 02:58:54;;;;;;;0.93;0.70;;;;;;;;;;5033076;28;20176;-51
2021/03/17 03:01:20;;;;;;;0.82;0.60;;;;;;;;;;5030309;28;20204;-51
2021/03/17 03:03:47;;;;;;;0.82;0.75;;;;;;;;;;5020655;28;20190;-51
2021/03/17 03:06:14;;;;;;;1.50;0.68;;;;;;;;;;5034498;28;20180;-51
2021/03/17 03:08:41;;;;;;;1.27;0.80;;;;;;;;;;5020773;28;20192;-51
2021/03/17 03:11:08;;;;;;;0.63;0.50;;;;;;;;;;5018400;28;20253;-51
2021/03/17 03:13:35;;;;;;;0.73;0.55;;;;;;;;;;5028742;28;20183;-51
2021/03/17 03:16:02;;;;;;;1.00;0.70;;;;;;;;;;5036389;28;20183;-51
2021/03/17 03:18:28;;;;;;;2.78;0.90;;;;;;;;;;5038423;28;20160;-51
2021/03/17 03:20:55;;;;;;;0.63;0.63;;;;;;;;;;5037446;28;20175;-51
2021/03/17 03:23:22;;;;;;;0.73;0.70;;;;;;;;;;5026044;28;20192;-51
2021/03/17 03:25:49;;;;;;;0.77;0.68;;;;;;;;;;5033776;28;20193;-51
2021/03/17 03:28:16;;;;;;;0.60;0.60;;;;;;;;;;5027001;28;20286;-51
2021/03/17 03:30:46;;;;;;;0.77;0.50;;;;;;;;;;5021429;28;20202;-51
2021/03/17 03:33:12;;;;;;;2.20;0.70;;;;;;;;;;5022037;28;20167;-51
2021/03/17 03:35:38;;;;;;;0.70;0.55;;;;;;;;;;5040211;28;20175;-51
2021/03/17 03:38:05;;;;;;;0.43;0.43;;;;;;;;;;5033594;28;20193;-51
2021/03/17 03:40:31;;;;;;;0.60;0.60;;;;;;;;;;5036226;28;20211;-51
2021/03/17 03:42:57;;;;;;;0.57;0.50;;;;;;;;;;5029668;28;20185;-51
2021/03/17 03:45:23;;;;;;;0.82;0.70;;;;;;;;;;5030891;28;20627;-51
2021/03/17 03:47:49;;;;;;;0.60;0.55;;;;;;;;;;5035701;28;20187;-51
2021/03/17 03:50:17;;;;;;;1.08;0.68;;;;;;;;;;5036738;28;20221;-51
2021/03/17 03:53:01;;;;;;;0.88;0.80;;;;;;;;;;5021627;28;20212;-51
2021/03/17 03:55:30;;;;;;;1.42;0.68;;;;;;;;;;5023415;28;20183;-51
2021/03/17 03:58:00;;;;;;;0.70;0.70;;;;;;;;;;5032227;28;20176;-51
2021/03/17 04:00:27;;;;;;;0.70;0.60;;;;;;;;;;5037538;28;20168;-51
2021/03/17 04:02:53;;;;;;;0.70;0.70;;;;;;;;;;5037328;28;20698;-51
2021/03/17 04:05:24;;;;;;;0.60;0.60;;;;;;;;;;5023772;28;20198;-51
2021/03/17 04:07:52;;;;;;;0.85;0.60;;;;;;;;;;5018828;28;20234;-50
2021/03/17 04:10:20;;;;;;;0.75;0.60;;;;;;;;;;5019494;28;20192;-51
2021/03/17 04:12:46;;;;;;;0.77;0.77;;;;;;;;;;5025759;28;20257;-51
2021/03/17 04:15:14;;;;;;;0.77;0.52;;;;;;;;;;5029605;28;20478;-51
2021/03/17 04:17:44;;;;;;;1.50;0.60;;;;;;;;;;5037258;28;20560;-51
2021/03/17 04:20:12;;;;;;;1.45;0.60;;;;;;;;;;5036663;28;20195;-51
2021/03/17 04:22:38;;;;;;;0.73;0.70;;;;;;;;;;5031424;28;20654;-51
2021/03/17 04:25:06;;;;;;;1.33;0.75;;;;;;;;;;5018715;28;20609;-51
2021/03/17 04:27:33;;;;;;;0.98;0.70;;;;;;;;;;5022780;28;20581;-51
2021/03/17 04:30:00;;;;;;;0.77;0.60;;;;;;;;;;5035430;28;20199;-51
2021/03/17 04:32:26;;;;;;;1.08;0.60;;;;;;;;;;5036847;28;20245;-51
2021/03/17 04:34:53;;;;;;;0.77;0.68;;;;;;;;;;5032867;28;20191;-51
2021/03/17 04:37:21;;;;;;;0.95;0.70;;;;;;;;;;5024239;28;20255;-51
2021/03/17 04:39:47;;;;;;;0.50;0.50;;;;;;;;;;5033334;28;20194;-51
2021/03/17 04:42:14;;;;;;;1.95;0.85;;;;;;;;;;5034915;28;20685;-51
2021/03/17 04:44:40;;;;;;;0.60;0.60;;;;;;;;;;5022568;28;20207;-51
2021/03/17 04:47:07;;;;;;;2.30;0.60;;;;;;;;;;5036254;28;20172;-51
2021/03/17 04:49:33;;;;;;;1.00;0.60;;;;;;;;;;5036495;28;20199;-51
2021/03/17 04:52:00;;;;;;;0.85;0.60;;;;;;;;;;5026185;28;20196;-51
2021/03/17 04:54:27;;;;;;;8.93;1.77;;;;;;;;;;5019981;28;20183;-51
2021/03/17 04:56:53;;;;;;;8.45;2.20;;;;;;;;;;5033609;28;20180;-51
2021/03/17 04:59:21;;;;;;;10.10;1.95;;;;;;;;;;5030886;28;20190;-51
2021/03/17 05:01:47;;;;;;;7.10;2.13;;;;;;;;;;5035948;28;20192;-51
2021/03/17 05:04:14;;;;;;;6.72;1.50;;;;;;;;;;5035294;28;20440;-51
2021/03/17 05:06:44;;;;;;;6.43;1.88;;;;;;;;;;5029820;28;20175;-51
2021/03/17 05:09:11;;;;;;;5.72;1.65;;;;;;;;;;5017860;28;20180;-51
2021/03/17 05:11:37;;;;;;;7.57;1.40;;;;;;;;;;5016367;28;20635;-51
2021/03/17 05:14:05;;;;;;;5.13;1.50;;;;;;;;;;5028532;28;20429;-51
2021/03/17 05:16:31;;;;;;;3.88;1.42;;;;;;;;;;5027423;28;20191;-51
2021/03/17 05:18:59;;;;;;;5.93;1.50;;;;;;;;;;5030137;28;20202;-51
2021/03/17 05:21:26;;;;;;;3.15;1.25;;;;;;;;;;5029354;28;20289;-51
2021/03/17 05:23:52;;;;;;;4.95;1.42;;;;;;;;;;5031375;28;20184;-51
2021/03/17 05:26:18;;;;;;;6.07;1.75;;;;;;;;;;5017635;28;20203;-51
2021/03/17 05:28:44;;;;;;;2.90;1.30;;;;;;;;;;5023774;28;20722;-51
2021/03/17 05:31:10;;;;;;;5.75;1.73;;;;;;;;;;5032411;28;20632;-51
2021/03/17 05:33:37;;;;;;;5.55;1.70;;;;;;;;;;5030123;28;20180;-51
2021/03/17 05:36:03;;;;;;;5.03;1.27;;;;;;;;;;5034084;28;20190;-51
2021/03/17 05:38:29;;;;;;;5.38;1.30;;;;;;;;;;5035608;28;20172;-51
2021/03/17 05:40:56;;;;;;;3.70;1.60;;;;;;;;;;5017999;28;20176;-51
2021/03/17 05:43:22;;;;;;;3.70;1.45;;;;;;;;;;5025432;28;20180;-51
2021/03/17 05:45:49;;;;;;;3.85;1.25;;;;;;;;;;5031595;28;20328;-51
2021/03/17 05:48:16;;;;;;;3.50;1.10;;;;;;;;;;5018940;28;20181;-51
2021/03/17 05:50:42;;;;;;;2.17;1.23;;;;;;;;;;5034789;28;20253;-51
2021/03/17 05:53:09;;;;;;;6.15;1.77;;;;;;;;;;5015383;28;20191;-51
2021/03/17 05:55:36;;;;;;;2.92;1.10;;;;;;;;;;5030443;28;20176;-51
2021/03/17 05:58:03;;;;;;;2.08;1.08;;;;;;;;;;5028596;28;20187;-51
2021/03/17 06:00:29;;;;;;;2.00;1.23;;;;;;;;;;5027040;28;20176;-51
2021/03/17 06:02:55;;;;;;;3.80;1.63;;;;;;;;;;5023282;28;20583;-51
2021/03/17 06:05:22;;;;;;;2.58;1.23;;;;;;;;;;5032298;28;20191;-51
2021/03/17 06:08:07;;;;;;;2.88;1.20;;;;;;;;;;5031085;28;20230;-51
2021/03/17 06:10:34;;;;;;;2.38;1.20;;;;;;;;;;5014146;28;20177;-51
2021/03/17 06:13:03;;;;;;;2.42;1.20;;;;;;;;;;5022159;28;20207;-51
2021/03/17 06:15:30;;;;;;;2.90;1.20;;;;;;;;;;5018995;28;20176;-51
2021/03/17 06:18:04;;;;;;;2.13;1.30;;;;;;;;;;5029055;28;20259;-51
2021/03/17 06:20:30;;;;;;;4.18;1.40;;;;;;;;;;5031286;28;20183;-51
2021/03/17 06:22:56;;;;;;;3.10;1.23;;;;;;;;;;5027082;28;20234;-51
2021/03/17 06:25:23;;;;;;;1.95;1.02;;;;;;;;;;5015138;28;20514;-51
2021/03/17 06:27:49;;;;;;;5.43;1.30;;;;;;;;;;5017121;28;20575;-51
2021/03/17 06:30:15;;;;;;;1.35;1.05;;;;;;;;;;5015168;28;20176;-51
2021/03/17 06:32:41;;;;;;;1.83;1.25;;;;;;;;;;5016295;28;20214;-51
2021/03/17 06:35:16;;;;;;;1.98;0.95;;;;;;;;;;5032645;28;20199;-51
2021/03/17 06:37:42;;;;;;;1.45;0.85;;;;;;;;;;5026862;28;20183;-51
2021/03/17 06:40:28;;;;;;;3.40;1.30;;;;;;;;;;5015165;28;20263;-51
2021/03/17 06:42:56;;;;;;;2.67;1.02;;;;;;;;;;5020530;28;20810;-51
2021/03/17 06:45:29;;;;;;;2.38;1.45;;;;;;;;;;5030991;28;20183;-51
2021/03/17 06:47:55;;;;;;;2.70;1.30;;;;;;;;;;5032059;28;20198;-51
2021/03/17 06:50:28;;;;;;;1.35;0.93;;;;;;;;;;5031968;28;20195;-51
2021/03/17 06:52:54;;;;;;;1.45;1.08;;;;;;;;;;5020606;28;20214;-50
2021/03/17 06:55:21;;;;;;;1.92;1.25;;;;;;;;;;5016536;28;20177;-50
2021/03/17 06:57:48;;;;;;;1.90;0.90;;;;;;;;;;5015082;28;20247;-50
2021/03/17 07:00:17;;;;;;;2.75;1.10;;;;;;;;;;5022316;28;20184;-50
2021/03/17 07:02:49;;;;;;;1.23;0.90;;;;;;;;;;5030573;28;20208;-50
2021/03/17 07:05:16;;;;;;;3.42;1.42;;;;;;;;;;5019825;28;20211;-50
2021/03/17 07:07:49;;;;;;;3.00;1.33;;;;;;;;;;5026474;28;20172;-50
2021/03/17 07:10:27;;;;;;;2.08;1.00;;;;;;;;;;5025649;28;20558;-51
2021/03/17 07:12:54;;;;;;;3.58;1.30;;;;;;;;;;5023223;28;20521;-50
2021/03/17 07:15:20;;;;;;;3.42;1.30;;;;;;;;;;5026969;28;20205;-50
2021/03/17 07:17:47;;;;;;;3.05;1.20;;;;;;;;;;5016102;28;20181;-50
2021/03/17 07:20:13;;;;;;;4.28;1.23;;;;;;;;;;5026915;28;20256;-50
2021/03/17 07:22:39;;;;;;;2.72;1.15;;;;;;;;;;5026726;28;20563;-50
2021/03/17 07:25:06;;;;;;;3.20;1.15;;;;;;;;;;5026474;28;20179;-50
2021/03/17 07:27:33;;;;;;;4.13;1.23;;;;;;;;;;5027071;28;20560;-50
2021/03/17 07:29:59;;;;;;;1.65;1.20;;;;;;;;;;5018396;28;20207;-50
2021/03/17 07:32:25;;;;;;;2.75;1.33;;;;;;;;;;5025315;28;20211;-50
2021/03/17 07:34:52;;;;;;;4.07;1.17;;;;;;;;;;5043007;28;20500;-50
2021/03/17 07:37:24;;;;;;;1.63;0.80;;;;;;;;;;5026073;28;20179;-50
2021/03/17 07:39:51;;;;;;;2.92;1.10;;;;;;;;;;5037948;28;20481;-50
2021/03/17 07:42:20;;;;;;;1.30;0.88;;;;;;;;;;5037362;28;20176;-50
2021/03/17 07:44:46;;;;;;;1.50;1.00;;;;;;;;;;5036727;28;20220;-50
2021/03/17 07:47:12;;;;;;;2.92;1.10;;;;;;;;;;5025439;28;20176;-50
2021/03/17 07:49:43;;;;;;;1.95;0.95;;;;;;;;;;5023529;28;20219;-50
2021/03/17 07:52:14;;;;;;;2.58;1.17;;;;;;;;;;5017915;28;20239;-50
2021/03/17 07:54:44;;;;;;;1.52;1.10;;;;;;;;;;5035022;28;20168;-50
2021/03/17 07:57:11;;;;;;;1.20;0.82;;;;;;;;;;5037432;28;20447;-50
2021/03/17 07:59:37;;;;;;;1.13;0.77;;;;;;;;;;5037701;28;20199;-50
2021/03/17 08:02:03;;;;;;;3.20;1.20;;;;;;;;;;5037467;28;20195;-51
2021/03/17 08:04:30;;;;;;;1.17;0.90;;;;;;;;;;5020018;28;20658;-50
2021/03/17 08:07:03;;;;;;;3.60;1.00;;;;;;;;;;5017719;28;20173;-50
2021/03/17 08:09:29;;;;;;;1.75;0.90;;;;;;;;;;5017427;28;20176;-50
2021/03/17 08:11:56;;;;;;;1.75;0.82;;;;;;;;;;5017492;28;20219;-50
2021/03/17 08:14:24;;;;;;;1.75;1.08;;;;;;;;;;5016915;28;20171;-50
2021/03/17 08:16:50;;;;;;;1.42;0.90;;;;;;;;;;5017487;28;20568;-50
2021/03/17 08:19:19;;;;;;;1.60;0.90;;;;;;;;;;5019842;28;20235;-50
2021/03/17 08:21:52;;;;;;;1.48;0.90;;;;;;;;;;5036827;28;20168;-50
2021/03/17 08:24:32;;;;;;;2.38;0.90;;;;;;;;;;5036654;28;20176;-51
2021/03/17 08:26:59;;;;;;;4.85;1.00;;;;;;;;;;5036801;28;20187;-51
2021/03/17 08:29:36;;;;;;;2.05;1.05;;;;;;;;;;5037036;28;20168;-51
2021/03/17 08:32:02;;;;;;;0.80;0.80;;;;;;;;;;5036713;28;20198;-51
2021/03/17 08:34:29;;;;;;;1.88;0.85;;;;;;;;;;5041177;28;20258;-51
2021/03/17 08:37:00;;;;;;;1.10;0.88;;;;;;;;;;5039737;28;20423;-51
2021/03/17 08:39:36;;;;;;;2.78;0.90;;;;;;;;;;5036624;28;20500;-50
2021/03/17 08:42:06;;;;;;;0.95;0.70;;;;;;;;;;5037066;28;20450;-50
2021/03/17 08:44:32;;;;;;;1.13;0.95;;;;;;;;;;5026841;28;20184;-50
2021/03/17 08:47:17;;;;;;;1.35;0.90;;;;;;;;;;5016581;28;20173;-50
2021/03/17 08:49:44;;;;;;;1.77;0.95;;;;;;;;;;5016726;28;20188;-50
2021/03/17 08:52:11;;;;;;;1.23;0.85;;;;;;;;;;5025223;28;20214;-50
2021/03/17 08:54:41;;;;;;;0.93;0.70;;;;;;;;;;5028553;28;20200;-51
2021/03/17 08:57:08;;;;;;;1.10;0.80;;;;;;;;;;5013737;28;20223;-51
2021/03/17 08:59:44;;;;;;;0.70;0.60;;;;;;;;;;5016138;28;20637;-50
2021/03/17 09:02:16;;;;;;;3.28;0.90;;;;;;;;;;5016193;28;20200;-50
2021/03/17 09:04:49;;;;;;;1.73;0.90;;;;;;;;;;5015127;28;20255;-50
2021/03/17 09:07:16;;;;;;;1.50;0.90;;;;;;;;;;5017637;28;20180;-50
2021/03/17 09:09:52;;;;;;;0.98;0.75;;;;;;;;;;5016041;28;20177;-50
2021/03/17 09:12:27;;;;;;;1.00;0.90;;;;;;;;;;5016285;28;20206;-50
2021/03/17 09:15:15;;;;;;;0.95;0.70;;;;;;;;;;5015644;28;20199;-50
2021/03/17 09:17:44;;;;;;;1.42;0.70;;;;;;;;;;5025049;28;20180;-50
2021/03/17 09:20:15;;;;;;;1.13;1.02;;;;;;;;;;5035659;28;20195;-50
2021/03/17 09:22:43;;;;;;;1.17;0.77;;;;;;;;;;5035791;28;20171;-51
2021/03/17 09:25:20;;;;;;;1.27;0.70;;;;;;;;;;5016522;28;20489;-51
2021/03/17 09:27:47;;;;;;;1.85;0.57;;;;;;;;;;5016077;28;20252;-50
2021/03/17 09:30:15;;;;;;;0.82;0.68;;;;;;;;;;5016028;28;20222;-50
2021/03/17 09:32:41;;;;;;;1.30;0.80;;;;;;;;;;5015637;28;20226;-51
2021/03/17 09:35:07;;;;;;;0.95;0.75;;;;;;;;;;5033482;28;20175;-51
2021/03/17 09:37:33;;;;;;;0.73;0.63;;;;;;;;;;5035743;28;20171;-50
2021/03/17 09:39:59;;;;;;;0.60;0.60;;;;;;;;;;5034498;28;20168;-51
2021/03/17 09:42:25;;;;;;;0.90;0.50;;;;;;;;;;5032443;28;20188;-51
2021/03/17 09:44:58;;;;;;;1.25;0.70;;;;;;;;;;5015208;28;20169;-50
2021/03/17 09:47:28;;;;;;;2.30;0.85;;;;;;;;;;5015812;28;20267;-50
2021/03/17 09:49:55;;;;;;;1.30;0.68;;;;;;;;;;5014996;28;20192;-50
2021/03/17 09:52:21;;;;;;;0.82;0.70;;;;;;;;;;5015598;28;20291;-50
2021/03/17 09:54:48;;;;;;;0.95;0.73;;;;;;;;;;5030098;28;20187;-50
2021/03/17 09:57:14;;;;;;;0.93;0.63;;;;;;;;;;5032199;28;20501;-51
2021/03/17 09:59:41;;;;;;;2.58;0.80;;;;;;;;;;5034963;28;20186;-51
2021/03/17 10:02:16;;;;;;;1.15;0.77;;;;;;;;;;5035254;28;20192;-51
2021/03/17 10:04:43;;;;;;;1.38;0.80;;;;;;;;;;5034816;28;20438;-51
2021/03/17 10:07:14;;;;;;;4.53;0.68;;;;;;;;;;5035193;28;20164;-50
2021/03/17 10:09:41;;;;;;;1.38;0.70;;;;;;;;;;5035317;28;20175;-50
2021/03/17 10:12:07;;;;;;;2.75;0.90;;;;;;;;;;5028644;28;20231;-50
2021/03/17 10:14:34;;;;;;;1.13;0.90;;;;;;;;;;5015253;28;20188;-50
2021/03/17 10:17:01;;;;;;;0.90;0.80;;;;;;;;;;5022981;28;20180;-50
2021/03/17 10:19:27;;;;;;;1.67;0.70;;;;;;;;;;5023555;28;20187;-50
2021/03/17 10:21:54;;;;;;;1.35;0.73;;;;;;;;;;5030552;28;20201;-50
2021/03/17 10:24:39;;;;;;;1.02;0.82;;;;;;;;;;5020699;28;20187;-50
2021/03/17 10:27:06;;;;;;;2.65;0.90;;;;;;;;;;5025876;28;20180;-50
2021/03/17 10:29:33;;;;;;;1.27;0.68;;;;;;;;;;5021299;28;20184;-51
2021/03/17 10:31:59;;;;;;;2.90;0.90;;;;;;;;;;5020378;28;20218;-51
2021/03/17 10:34:28;;;;;;;1.67;0.85;;;;;;;;;;5034326;28;20182;-51
2021/03/17 10:36:55;;;;;;;1.05;0.70;;;;;;;;;;5034686;28;20226;-51
2021/03/17 10:39:40;;;;;;;2.35;0.80;;;;;;;;;;5020619;28;20181;-51
2021/03/17 10:42:17;;;;;;;2.20;1.02;;;;;;;;;;5017518;28;20184;-51
2021/03/17 10:44:43;;;;;;;1.98;0.70;;;;;;;;;;5028438;28;20585;-51
2021/03/17 10:47:10;;;;;;;3.63;0.90;;;;;;;;;;5030512;28;20200;-51
2021/03/17 10:49:46;;;;;;;2.47;1.00;;;;;;;;;;5032258;28;20206;-51
2021/03/17 10:52:12;;;;;;;2.38;0.70;;;;;;;;;;5033555;28;20447;-51
2021/03/17 10:54:39;;;;;;;1.73;0.80;;;;;;;;;;5024682;28;20563;-51
2021/03/17 10:57:05;;;;;;;2.92;0.77;;;;;;;;;;5016456;28;20181;-51
2021/03/17 10:59:33;;;;;;;1.52;0.80;;;;;;;;;;5015282;28;20179;-50
2021/03/17 11:02:17;;;;;;;3.42;0.85;;;;;;;;;;5034420;28;20195;-51
2021/03/17 11:05:02;;;;;;;2.97;1.20;;;;;;;;;;5026749;28;20179;-51
2021/03/17 11:07:28;;;;;;;1.60;0.90;;;;;;;;;;5038618;28;20180;-51
2021/03/17 11:09:54;;;;;;;1.17;0.93;;;;;;;;;;5020756;28;20269;-51
2021/03/17 11:12:20;;;;;;;3.35;0.90;;;;;;;;;;5018335;28;20202;-51
2021/03/17 11:14:46;;;;;;;2.05;1.13;;;;;;;;;;5017823;28;20612;-51
2021/03/17 11:17:12;;;;;;;2.92;1.48;;;;;;;;;;5027712;28;20183;-51
2021/03/17 11:19:38;;;;;;;2.75;1.20;;;;;;;;;;5026288;28;20473;-51
2021/03/17 11:22:04;;;;;;;2.83;1.30;;;;;;;;;;5037067;28;20184;-51
2021/03/17 11:24:30;;;;;;;1.95;1.20;;;;;;;;;;5024259;28;20192;-51
2021/03/17 11:26:56;;;;;;;2.00;1.02;;;;;;;;;;5018305;28;20544;-51
2021/03/17 11:29:23;;;;;;;2.67;1.45;;;;;;;;;;5026226;28;20258;-51
2021/03/17 11:31:51;;;;;;;1.90;0.90;;;;;;;;;;5035412;28;20355;-51
2021/03/17 11:34:18;;;;;;;1.13;1.00;;;;;;;;;;5026558;28;20578;-51
2021/03/17 11:36:45;;;;;;;1.40;0.95;;;;;;;;;;5057564;28;20179;-51
2021/03/17 11:39:15;;;;;;;4.72;1.25;;;;;;;;;;5025210;28;20609;-51
2021/03/17 11:41:41;;;;;;;2.28;1.15;;;;;;;;;;5037597;28;20181;-51
2021/03/17 11:44:09;;;;;;;2.25;0.93;;;;;;;;;;5037248;28;20171;-50
2021/03/17 11:46:35;;;;;;;1.63;1.20;;;;;;;;;;5037751;28;20276;-50
2021/03/17 11:49:01;;;;;;;1.58;1.10;;;;;;;;;;5027986;28;20231;-50
2021/03/17 11:51:27;;;;;;;1.98;1.13;;;;;;;;;;5017929;28;20587;-50
2021/03/17 11:53:53;;;;;;;1.33;1.10;;;;;;;;;;5021241;28;20257;-50
2021/03/17 11:56:20;;;;;;;1.30;1.08;;;;;;;;;;5034841;28;20203;-50
2021/03/17 11:58:46;;;;;;;2.28;1.20;;;;;;;;;;5028776;28;20578;-51
2021/03/17 12:01:12;;;;;;;1.23;1.10;;;;;;;;;;5033277;28;20200;-50
2021/03/17 12:03:39;;;;;;;2.85;1.10;;;;;;;;;;5037253;28;20183;-50
2021/03/17 12:06:05;;;;;;;1.17;0.85;;;;;;;;;;5017869;28;20191;-50
2021/03/17 12:08:31;;;;;;;1.35;0.88;;;;;;;;;;5029997;28;20195;-50
2021/03/17 12:10:58;;;;;;;4.57;1.20;;;;;;;;;;5034432;28;20189;-50
2021/03/17 12:13:25;;;;;;;5.97;1.00;;;;;;;;;;5035763;28;20184;-50
2021/03/17 12:15:51;;;;;;;1.35;1.02;;;;;;;;;;5039652;28;20218;-50
2021/03/17 12:18:18;;;;;;;1.08;0.98;;;;;;;;;;5034987;28;20624;-51
2021/03/17 12:20:44;;;;;;;1.50;1.08;;;;;;;;;;5033000;28;20195;-50
2021/03/17 12:23:10;;;;;;;1.05;0.95;;;;;;;;;;5025124;28;20264;-50
2021/03/17 12:25:36;;;;;;;4.63;1.10;;;;;;;;;;5032271;28;20192;-50
2021/03/17 12:28:03;;;;;;;2.72;1.25;;;;;;;;;;5035572;28;20515;-51
2021/03/17 12:30:29;;;;;;;15.35;3.67;;;;;;;;;;5029136;28;20794;-50
2021/03/17 12:32:55;;;;;;;63.05;13.05;;;;;;;;;;5021882;28;20299;-50
2021/03/17 12:35:22;;;;;;;64.28;14.30;;;;;;;;;;5033498;28;20184;-50
2021/03/17 12:37:50;;;;;;;57.55;13.90;;;;;;;;;;5023827;28;20181;-50
2021/03/17 12:40:18;;;;;;;75.50;15.85;;;;;;;;;;5016882;28;20176;-50
2021/03/17 12:42:44;;;;;;;61.67;14.48;;;;;;;;;;5032369;28;20191;-50
2021/03/17 12:45:12;;;;;;;66.20;14.73;;;;;;;;;;5032341;28;20183;-50
2021/03/17 12:47:38;;;;;;;58.00;15.02;;;;;;;;;;5030666;28;20204;-50
2021/03/17 12:50:05;;;;;;;63.53;16.30;;;;;;;;;;5033895;28;20200;-50
2021/03/17 12:52:31;;;;;;;71.90;16.10;;;;;;;;;;5028889;28;20938;-50
2021/03/17 12:54:57;;;;;;;57.13;14.70;;;;;;;;;;5016129;28;20165;-50
2021/03/17 12:57:23;;;;;;;56.03;14.20;;;;;;;;;;5018970;28;20270;-50
2021/03/17 12:59:49;;;;;;;56.85;13.00;;;;;;;;;;5036464;28;20215;-50
2021/03/17 13:02:15;;;;;;;55.63;13.73;;;;;;;;;;5025691;28;20216;-51
2021/03/17 13:04:41;;;;;;;49.28;12.38;;;;;;;;;;5016327;28;20218;-50
2021/03/17 13:07:07;;;;;;;46.70;13.35;;;;;;;;;;5018768;28;20238;-50
2021/03/17 13:09:33;;;;;;;47.63;14.50;;;;;;;;;;5027599;28;20176;-50
2021/03/17 13:11:59;;;;;;;59.78;14.00;;;;;;;;;;5027902;28;20227;-50
2021/03/17 13:14:25;;;;;;;57.97;14.40;;;;;;;;;;5029243;28;20214;-50
2021/03/17 13:16:52;;;;;;;51.70;13.95;;;;;;;;;;5024510;28;20210;-50
2021/03/17 13:19:18;;;;;;;50.33;14.20;;;;;;;;;;5033972;28;20599;-50
2021/03/17 13:21:44;;;;;;;42.50;12.02;;;;;;;;;;5034091;28;20184;-50
2021/03/17 13:24:11;;;;;;;46.88;12.85;;;;;;;;;;5035520;28;20176;-50
2021/03/17 13:26:37;;;;;;;49.85;13.05;;;;;;;;;;5034120;28;20193;-50
2021/03/17 13:29:03;;;;;;;46.17;12.27;;;;;;;;;;5018446;28;20185;-50
2021/03/17 13:31:30;;;;;;;38.90;11.88;;;;;;;;;;5017329;28;20619;-50
2021/03/17 13:33:56;;;;;;;38.13;11.02;;;;;;;;;;5027593;28;20432;-50
2021/03/17 13:36:22;;;;;;;37.53;11.00;;;;;;;;;;5046495;28;20199;-50
2021/03/17 13:38:47;;;;;;;35.13;11.32;;;;;;;;;;5034743;28;20269;-50
2021/03/17 13:41:13;;;;;;;38.10;11.77;;;;;;;;;;5027562;28;20274;-50
2021/03/17 13:43:39;;;;;;;35.95;11.55;;;;;;;;;;5030312;28;20190;-51
2021/03/17 13:46:05;;;;;;;35.63;10.70;;;;;;;;;;5015242;28;20183;-51
2021/03/17 13:48:31;;;;;;;32.97;10.88;;;;;;;;;;5027829;28;20447;-51
2021/03/17 13:50:58;;;;;;;31.48;9.80;;;;;;;;;;5016209;28;20172;-51
2021/03/17 13:53:24;;;;;;;31.80;9.68;;;;;;;;;;5035121;28;20180;-51
2021/03/17 13:55:50;;;;;;;34.85;10.65;;;;;;;;;;5034900;28;20227;-51
2021/03/17 13:58:17;;;;;;;27.80;9.43;;;;;;;;;;5025755;28;20171;-51
2021/03/17 14:00:44;;;;;;;30.98;9.38;;;;;;;;;;5015702;28;20258;-51
2021/03/17 14:03:10;;;;;;;32.20;9.98;;;;;;;;;;5021841;28;20499;-51
2021/03/17 14:05:36;;;;;;;27.65;8.93;;;;;;;;;;5034014;28;20212;-51
2021/03/17 14:08:02;;;;;;;27.70;8.60;;;;;;;;;;5019669;28;20239;-51
2021/03/17 14:10:31;;;;;;;25.63;8.85;;;;;;;;;;5015314;28;20599;-51
2021/03/17 14:12:59;;;;;;;28.42;8.88;;;;;;;;;;5031700;28;20203;-51
2021/03/17 14:15:26;;;;;;;22.75;8.88;;;;;;;;;;5020978;28;20176;-51
2021/03/17 14:17:53;;;;;;;23.27;8.65;;;;;;;;;;5033109;28;20485;-51
2021/03/17 14:20:19;;;;;;;23.50;7.93;;;;;;;;;;5034976;28;20168;-51
2021/03/17 14:22:46;;;;;;;20.52;7.93;;;;;;;;;;5019948;28;20195;-51
2021/03/17 14:25:12;;;;;;;22.25;8.52;;;;;;;;;;5014821;28;20277;-51
2021/03/17 14:27:39;;;;;;;22.10;7.65;;;;;;;;;;5015361;28;20254;-51
2021/03/17 14:30:06;;;;;;;24.60;7.75;;;;;;;;;;5015300;28;20176;-51
2021/03/17 14:32:32;;;;;;;19.13;7.22;;;;;;;;;;5021501;28;20592;-51
2021/03/17 14:34:58;;;;;;;16.67;6.70;;;;;;;;;;5032626;28;20333;-51
2021/03/17 14:37:25;;;;;;;19.30;7.43;;;;;;;;;;5058886;28;20262;-51
2021/03/17 14:39:51;;;;;;;17.58;7.25;;;;;;;;;;5037796;28;20473;-51
2021/03/17 14:42:17;;;;;;;18.67;7.07;;;;;;;;;;5024301;28;20189;-51
2021/03/17 14:44:43;;;;;;;17.88;6.70;;;;;;;;;;5021156;28;20271;-51